createdAt,value
2023-09-30T00:00:50.920Z,101149.56
2023-09-30T00:01:54.396Z,101148.97
2023-09-30T00:02:57.446Z,101147.12
2023-09-30T00:04:02.459Z,101145.50
2023-09-30T00:05:06.521Z,101151.91
2023-09-30T00:06:09.498Z,101148.84
2023-09-30T00:07:12.672Z,101154.56
2023-09-30T00:08:15.652Z,101126.62
2023-09-30T00:09:18.639Z,101144.66
2023-09-30T00:10:21.352Z,101148.13
2023-09-30T00:11:24.215Z,101152.47
2023-09-30T00:12:28.321Z,101148.63
2023-09-30T00:13:31.376Z,101146.81
2023-09-30T00:14:34.221Z,101148.72
2023-09-30T00:15:37.226Z,101137.75
2023-09-30T00:16:40.473Z,101160.47
2023-09-30T00:17:43.996Z,101159.97
2023-09-30T00:18:47.544Z,101155.06
2023-09-30T00:19:50.515Z,101159.44
2023-09-30T00:20:53.462Z,101159.44
2023-09-30T00:21:56.649Z,101159.19
2023-09-30T00:22:59.792Z,101108.63
2023-09-30T00:24:02.766Z,101152.63
2023-09-30T00:25:06.037Z,101134.47
2023-09-30T00:26:09.210Z,101150.78
2023-09-30T00:27:11.971Z,101156.03
2023-09-30T00:28:16.038Z,101152.63
2023-09-30T00:29:19.176Z,101150.09
2023-09-30T00:30:25.050Z,101150.94
2023-09-30T00:31:27.970Z,101153.50
2023-09-30T00:32:32.483Z,101144.72
2023-09-30T00:33:35.756Z,101150.94
2023-09-30T00:34:38.823Z,101156.22
2023-09-30T00:35:41.680Z,101151.97
2023-09-30T00:36:44.491Z,101160.06
2023-09-30T00:37:48.035Z,101161.84
2023-09-30T00:38:51.064Z,101153.94
2023-09-30T00:39:54.745Z,101160.16
2023-09-30T00:40:57.640Z,101149.25
2023-09-30T00:42:00.788Z,101155.13
2023-09-30T00:43:04.842Z,101159.72
2023-09-30T00:44:09.344Z,101159.63
2023-09-30T00:45:12.556Z,101161.06
2023-09-30T00:46:28.278Z,101164.81
2023-09-30T00:47:31.652Z,101166.44
2023-09-30T00:48:35.875Z,101165.41
2023-09-30T00:49:39.892Z,101165.50
2023-09-30T00:50:43.448Z,101159.28
2023-09-30T00:51:49.533Z,101162.78
2023-09-30T00:52:52.805Z,101165.25
2023-09-30T00:54:00.188Z,101164.31
2023-09-30T00:55:04.398Z,101165.06
2023-09-30T00:56:07.628Z,101132.69
2023-09-30T00:57:12.522Z,101163.00
2023-09-30T00:58:15.630Z,101115.50
2023-09-30T00:59:18.604Z,101163.69
2023-09-30T01:00:21.735Z,101162.37
2023-09-30T01:01:25.226Z,101152.94
2023-09-30T01:02:28.112Z,101155.75
2023-09-30T01:03:31.068Z,101162.94
2023-09-30T01:04:34.386Z,101158.44
2023-09-30T01:05:37.780Z,101155.75
2023-09-30T01:06:40.496Z,101138.63
2023-09-30T01:07:43.469Z,101154.97
2023-09-30T01:08:46.405Z,101144.34
2023-09-30T01:09:49.618Z,101148.41
2023-09-30T01:10:52.889Z,101158.94
2023-09-30T01:11:55.795Z,101154.53
2023-09-30T01:12:58.860Z,101153.50
2023-09-30T01:14:01.802Z,101147.31
2023-09-30T01:15:08.381Z,101155.22
2023-09-30T01:16:12.733Z,101152.94
2023-09-30T01:17:16.263Z,101150.62
2023-09-30T01:18:19.367Z,101150.94
2023-09-30T01:19:22.515Z,101148.47
2023-09-30T01:20:25.767Z,101101.84
2023-09-30T01:21:29.149Z,101094.78
2023-09-30T01:22:31.970Z,101148.28
2023-09-30T01:23:36.601Z,101143.38
2023-09-30T01:24:43.699Z,101141.44
2023-09-30T01:25:46.706Z,101148.22
2023-09-30T01:26:50.042Z,101153.66
2023-09-30T01:27:53.252Z,101147.38
2023-09-30T01:28:56.196Z,101147.56
2023-09-30T01:29:59.362Z,101140.56
2023-09-30T01:31:02.107Z,101148.47
2023-09-30T01:32:10.175Z,101150.88
2023-09-30T01:33:13.176Z,101132.16
2023-09-30T01:34:16.693Z,101145.00
2023-09-30T01:35:19.669Z,101090.28
2023-09-30T01:36:22.404Z,101144.31
2023-09-30T01:37:29.017Z,101142.47
2023-09-30T01:38:32.019Z,101111.00
2023-09-30T01:39:35.256Z,101143.53
2023-09-30T01:40:38.863Z,101140.84
2023-09-30T01:41:42.153Z,101136.34
2023-09-30T01:42:46.590Z,101140.56
2023-09-30T01:43:49.923Z,101137.00
2023-09-30T01:44:52.996Z,101091.97
2023-09-30T01:45:56.191Z,101135.28
2023-09-30T01:46:59.780Z,101134.06
2023-09-30T01:48:04.064Z,101143.13
2023-09-30T01:49:06.966Z,101134.97
2023-09-30T01:50:10.276Z,101137.00
2023-09-30T01:51:13.125Z,101119.41
2023-09-30T01:52:16.230Z,101136.31
2023-09-30T01:53:19.409Z,101137.66
2023-09-30T01:54:22.144Z,101134.25
2023-09-30T01:55:25.237Z,101129.16
2023-09-30T01:56:28.154Z,101132.22
2023-09-30T01:57:30.838Z,101132.06
2023-09-30T01:58:33.791Z,101136.56
2023-09-30T01:59:36.837Z,101134.81
2023-09-30T02:00:39.992Z,101128.50
2023-09-30T02:01:43.325Z,101124.94
2023-09-30T02:02:46.483Z,101118.84
2023-09-30T02:03:49.608Z,101126.56
2023-09-30T02:04:52.644Z,101078.34
2023-09-30T02:05:55.808Z,101126.78
2023-09-30T02:06:59.836Z,101123.06
2023-09-30T02:08:07.339Z,101127.91
2023-09-30T02:09:10.562Z,101106.41
2023-09-30T02:10:13.455Z,101122.41
2023-09-30T02:11:18.545Z,101120.69
2023-09-30T02:12:21.681Z,101126.22
2023-09-30T02:13:24.403Z,101123.22
2023-09-30T02:14:27.317Z,101119.91
2023-09-30T02:15:30.283Z,101125.44
2023-09-30T02:16:33.219Z,101122.81
2023-09-30T02:17:36.638Z,101122.97
2023-09-30T02:18:39.486Z,101104.50
2023-09-30T02:19:43.033Z,101127.63
2023-09-30T02:20:46.078Z,101114.31
2023-09-30T02:21:49.632Z,101117.63
2023-09-30T02:22:53.462Z,101100.53
2023-09-30T02:23:56.876Z,101114.91
2023-09-30T02:25:00.084Z,101123.56
2023-09-30T02:26:04.209Z,101111.00
2023-09-30T02:27:07.327Z,101105.41
2023-09-30T02:28:10.640Z,101082.69
2023-09-30T02:29:13.293Z,101107.41
2023-09-30T02:30:17.498Z,101111.34
2023-09-30T02:31:20.693Z,101118.37
2023-09-30T02:32:25.272Z,101109.88
2023-09-30T02:33:28.548Z,101111.50
2023-09-30T02:34:32.101Z,101112.28
2023-09-30T02:35:34.794Z,101099.28
2023-09-30T02:36:40.305Z,101112.19
2023-09-30T02:37:43.322Z,101115.09
2023-09-30T02:38:47.610Z,101118.97
2023-09-30T02:39:50.554Z,101112.34
2023-09-30T02:40:55.875Z,101111.50
2023-09-30T02:41:58.944Z,101108.75
2023-09-30T02:43:02.271Z,101111.56
2023-09-30T02:44:05.652Z,101113.44
2023-09-30T02:45:09.899Z,101098.72
2023-09-30T02:46:13.880Z,101113.75
2023-09-30T02:47:17.337Z,101104.16
2023-09-30T02:48:20.188Z,101111.28
2023-09-30T02:49:23.233Z,101106.00
2023-09-30T02:50:26.212Z,101105.09
2023-09-30T02:51:29.692Z,101112.22
2023-09-30T02:52:33.350Z,101107.91
2023-09-30T02:53:36.282Z,101107.91
2023-09-30T02:54:39.462Z,101096.91
2023-09-30T02:55:43.288Z,101094.13
2023-09-30T02:56:47.737Z,101065.38
2023-09-30T02:57:51.052Z,101109.69
2023-09-30T02:58:54.005Z,101109.69
2023-09-30T02:59:57.859Z,101102.53
2023-09-30T03:01:01.148Z,101110.25
2023-09-30T03:02:08.084Z,101106.09
2023-09-30T03:03:11.466Z,101115.09
2023-09-30T03:04:14.589Z,101115.34
2023-09-30T03:05:18.560Z,101111.06
2023-09-30T03:06:21.316Z,101113.81
2023-09-30T03:07:24.058Z,101118.28
2023-09-30T03:08:27.731Z,101118.28
2023-09-30T03:09:30.680Z,101119.28
2023-09-30T03:10:33.455Z,101117.25
2023-09-30T03:11:36.326Z,101124.56
2023-09-30T03:12:38.947Z,101126.44
2023-09-30T03:13:43.764Z,101127.91
2023-09-30T03:14:46.739Z,101126.66
2023-09-30T03:15:53.035Z,101129.03
2023-09-30T03:16:55.990Z,101125.41
2023-09-30T03:18:01.144Z,101125.50
2023-09-30T03:19:09.391Z,101128.19
2023-09-30T03:20:15.947Z,101129.13
2023-09-30T03:21:18.949Z,101125.72
2023-09-30T03:22:21.842Z,101133.56
2023-09-30T03:23:30.251Z,101130.22
2023-09-30T03:24:33.439Z,101137.34
2023-09-30T03:25:36.522Z,101151.50
2023-09-30T03:26:42.205Z,101146.19
2023-09-30T03:27:48.286Z,101149.34
2023-09-30T03:28:51.542Z,101148.81
2023-09-30T03:29:55.347Z,101143.28
2023-09-30T03:30:58.102Z,101146.59
2023-09-30T03:32:01.088Z,101146.59
2023-09-30T03:33:05.835Z,101144.28
2023-09-30T03:34:09.867Z,101144.38
2023-09-30T03:35:18.383Z,101148.87
2023-09-30T03:36:23.580Z,101153.97
2023-09-30T03:37:28.020Z,101144.22
2023-09-30T03:38:30.729Z,101142.28
2023-09-30T03:39:34.209Z,101144.66
2023-09-30T03:40:39.640Z,101151.13
2023-09-30T03:41:42.251Z,101144.22
2023-09-30T03:42:45.096Z,101148.56
2023-09-30T03:43:50.407Z,101150.41
2023-09-30T03:44:53.356Z,101083.19
2023-09-30T03:45:58.551Z,101112.22
2023-09-30T03:47:01.931Z,101144.28
2023-09-30T03:48:05.273Z,101138.97
2023-09-30T03:49:09.734Z,101142.44
2023-09-30T03:50:16.470Z,101147.03
2023-09-30T03:51:20.450Z,101140.12
2023-09-30T03:52:26.811Z,101150.81
2023-09-30T03:53:29.970Z,101152.97
2023-09-30T03:54:32.854Z,101147.81
2023-09-30T03:55:35.915Z,101145.25
2023-09-30T03:56:39.795Z,101150.97
2023-09-30T03:57:42.879Z,101134.25
2023-09-30T03:58:46.216Z,101136.09
2023-09-30T03:59:49.264Z,101132.72
2023-09-30T04:00:53.283Z,101144.09
2023-09-30T04:01:56.319Z,101139.19
2023-09-30T04:03:00.041Z,101139.78
2023-09-30T04:04:03.923Z,101137.03
2023-09-30T04:05:08.149Z,101141.38
2023-09-30T04:06:11.257Z,101142.91
2023-09-30T04:07:14.524Z,101141.97
2023-09-30T04:08:18.276Z,101134.19
2023-09-30T04:09:21.204Z,101145.41
2023-09-30T04:10:24.189Z,101153.34
2023-09-30T04:11:26.993Z,101162.84
2023-09-30T04:12:30.093Z,101154.03
2023-09-30T04:13:34.318Z,101151.13
2023-09-30T04:14:37.248Z,101150.81
2023-09-30T04:15:40.610Z,101151.75
2023-09-30T04:16:44.219Z,101147.78
2023-09-30T04:17:47.319Z,101141.56
2023-09-30T04:18:51.510Z,101147.22
2023-09-30T04:19:54.982Z,101143.34
2023-09-30T04:20:58.238Z,101120.75
2023-09-30T04:22:01.316Z,101145.34
2023-09-30T04:23:04.357Z,101153.06
2023-09-30T04:24:08.141Z,101159.06
2023-09-30T04:25:12.066Z,101148.22
2023-09-30T04:26:14.709Z,101137.63
2023-09-30T04:27:18.227Z,101140.88
2023-09-30T04:28:21.775Z,101145.13
2023-09-30T04:29:24.747Z,101137.16
2023-09-30T04:30:28.898Z,101142.41
2023-09-30T04:31:32.015Z,101147.69
2023-09-30T04:32:35.010Z,101158.16
2023-09-30T04:33:38.838Z,101160.19
2023-09-30T04:34:43.541Z,101161.72
2023-09-30T04:35:48.637Z,101163.06
2023-09-30T04:36:51.418Z,101155.87
2023-09-30T04:37:54.352Z,101153.09
2023-09-30T04:39:02.207Z,101166.69
2023-09-30T04:40:21.493Z,101171.63
2023-09-30T04:41:26.998Z,101170.31
2023-09-30T04:42:29.963Z,101171.91
2023-09-30T04:43:33.900Z,101176.81
2023-09-30T04:44:38.957Z,101109.75
2023-09-30T04:45:41.894Z,101175.66
2023-09-30T04:46:47.445Z,101173.19
2023-09-30T04:47:50.774Z,101179.13
2023-09-30T04:48:53.865Z,101175.50
2023-09-30T04:50:00.330Z,101177.00
2023-09-30T04:51:07.666Z,101181.16
2023-09-30T04:52:10.777Z,101176.84
2023-09-30T04:53:14.260Z,101129.31
2023-09-30T04:54:17.165Z,101182.31
2023-09-30T04:55:21.044Z,101186.81
2023-09-30T04:56:24.459Z,101182.41
2023-09-30T04:57:27.848Z,101174.06
2023-09-30T04:58:31.130Z,101153.25
2023-09-30T04:59:34.087Z,101172.00
2023-09-30T05:00:37.488Z,101175.47
2023-09-30T05:01:40.421Z,101183.50
2023-09-30T05:02:44.251Z,101178.53
2023-09-30T05:03:50.858Z,101187.41
2023-09-30T05:04:54.490Z,101195.00
2023-09-30T05:05:59.428Z,101191.88
2023-09-30T05:07:02.564Z,101193.06
2023-09-30T05:08:05.633Z,101197.69
2023-09-30T05:09:08.991Z,101198.84
2023-09-30T05:10:15.052Z,101190.22
2023-09-30T05:11:18.119Z,101195.03
2023-09-30T05:12:21.495Z,101198.25
2023-09-30T05:13:27.128Z,101195.41
2023-09-30T05:14:30.234Z,101192.34
2023-09-30T05:15:34.156Z,101192.19
2023-09-30T05:16:37.992Z,101194.59
2023-09-30T05:17:41.068Z,101191.38
2023-09-30T05:18:44.504Z,101197.41
2023-09-30T05:19:47.556Z,101185.03
2023-09-30T05:20:50.803Z,101179.53
2023-09-30T05:21:53.945Z,101191.25
2023-09-30T05:22:57.447Z,101188.53
2023-09-30T05:24:00.070Z,101182.81
2023-09-30T05:25:03.299Z,101185.53
2023-09-30T05:26:06.306Z,101135.06
2023-09-30T05:27:10.714Z,101180.25
2023-09-30T05:28:14.887Z,101181.22
2023-09-30T05:29:18.032Z,101182.75
2023-09-30T05:30:21.537Z,101183.69
2023-09-30T05:31:24.512Z,101180.22
2023-09-30T05:32:28.283Z,101182.75
2023-09-30T05:33:31.822Z,101180.28
2023-09-30T05:34:34.720Z,101184.53
2023-09-30T05:35:37.291Z,101177.69
2023-09-30T05:36:40.648Z,101178.69
2023-09-30T05:37:46.478Z,101161.72
2023-09-30T05:38:49.516Z,101181.12
2023-09-30T05:39:52.412Z,101172.47
2023-09-30T05:41:03.358Z,101188.19
2023-09-30T05:42:06.905Z,101183.91
2023-09-30T05:43:10.035Z,101121.37
2023-09-30T05:44:12.883Z,101187.13
2023-09-30T05:45:16.925Z,101174.97
2023-09-30T05:46:20.117Z,101175.53
2023-09-30T05:47:22.778Z,101184.38
2023-09-30T05:48:25.978Z,101179.91
2023-09-30T05:49:28.929Z,101175.78
2023-09-30T05:50:32.782Z,101177.72
2023-09-30T05:51:35.656Z,101161.22
2023-09-30T05:52:38.629Z,101169.56
2023-09-30T05:53:44.481Z,101165.31
2023-09-30T05:54:47.602Z,101178.41
2023-09-30T05:55:52.051Z,101176.59
2023-09-30T05:56:55.040Z,101160.13
2023-09-30T05:57:57.850Z,101171.63
2023-09-30T05:59:01.282Z,101171.63
2023-09-30T06:00:28.182Z,101168.38
2023-09-30T06:01:31.610Z,101167.88
2023-09-30T06:02:38.137Z,101173.91
2023-09-30T06:03:42.648Z,101159.09
2023-09-30T06:04:47.486Z,101168.84
2023-09-30T06:05:50.451Z,101168.22
2023-09-30T06:06:54.504Z,101131.66
2023-09-30T06:07:58.038Z,101169.94
2023-09-30T06:09:01.151Z,101155.81
2023-09-30T06:10:04.458Z,101166.66
2023-09-30T06:11:07.794Z,101169.41
2023-09-30T06:12:13.129Z,101169.72
2023-09-30T06:13:16.868Z,101171.84
2023-09-30T06:14:20.011Z,101175.00
2023-09-30T06:15:27.204Z,101171.94
2023-09-30T06:16:33.044Z,101170.03
2023-09-30T06:17:36.285Z,101165.50
2023-09-30T06:18:39.549Z,101169.19
2023-09-30T06:19:42.484Z,101170.66
2023-09-30T06:20:45.352Z,101174.19
2023-09-30T06:21:48.534Z,101174.56
2023-09-30T06:22:51.661Z,101169.19
2023-09-30T06:23:54.574Z,101170.44
2023-09-30T06:24:57.595Z,101164.72
2023-09-30T06:26:03.546Z,101172.97
2023-09-30T06:27:06.990Z,101181.50
2023-09-30T06:28:10.863Z,101173.38
2023-09-30T06:29:13.825Z,101170.16
2023-09-30T06:30:17.868Z,101179.37
2023-09-30T06:31:21.438Z,101172.19
2023-09-30T06:32:24.411Z,101172.72
2023-09-30T06:33:30.831Z,101175.28
2023-09-30T06:34:35.649Z,101170.50
2023-09-30T06:35:41.273Z,101177.16
2023-09-30T06:36:44.934Z,101171.19
2023-09-30T06:37:48.757Z,101174.84
2023-09-30T06:38:53.221Z,101172.47
2023-09-30T06:39:56.882Z,101177.66
2023-09-30T06:41:01.108Z,101161.19
2023-09-30T06:42:04.723Z,101172.69
2023-09-30T06:43:07.291Z,101158.03
2023-09-30T06:44:10.526Z,101179.91
2023-09-30T06:45:14.203Z,101179.63
2023-09-30T06:46:17.942Z,101160.00
2023-09-30T06:47:21.990Z,101174.19
2023-09-30T06:48:25.018Z,101184.72
2023-09-30T06:49:29.135Z,101179.56
2023-09-30T06:50:32.832Z,101185.47
2023-09-30T06:51:35.468Z,101179.06
2023-09-30T06:52:40.984Z,101181.00
2023-09-30T06:53:43.869Z,101175.87
2023-09-30T06:54:47.064Z,101188.06
2023-09-30T06:55:50.122Z,101181.91
2023-09-30T06:56:53.846Z,101177.19
2023-09-30T06:57:56.608Z,101181.16
2023-09-30T06:58:59.341Z,101172.78
2023-09-30T07:00:13.054Z,101155.16
2023-09-30T07:01:18.719Z,101171.69
2023-09-30T07:02:21.353Z,101008.78
2023-09-30T07:03:26.972Z,101174.19
2023-09-30T07:04:31.396Z,101175.06
2023-09-30T07:05:34.661Z,101172.34
2023-09-30T07:06:37.313Z,101167.03
2023-09-30T07:07:41.054Z,101175.63
2023-09-30T07:08:44.581Z,101176.91
2023-09-30T07:09:47.559Z,101175.94
2023-09-30T07:10:50.986Z,101180.31
2023-09-30T07:11:53.769Z,101174.56
2023-09-30T07:12:57.119Z,101177.44
2023-09-30T07:14:02.412Z,101168.56
2023-09-30T07:15:08.548Z,101170.72
2023-09-30T07:16:11.819Z,101171.03
2023-09-30T07:17:15.356Z,101168.94
2023-09-30T07:18:19.389Z,101137.97
2023-09-30T07:19:22.451Z,101171.28
2023-09-30T07:20:25.398Z,101164.97
2023-09-30T07:21:28.764Z,101176.28
2023-09-30T07:23:38.663Z,101166.06
2023-09-30T07:24:41.320Z,101164.94
2023-09-30T07:25:44.261Z,101168.72
2023-09-30T07:26:47.506Z,101172.06
2023-09-30T07:27:50.523Z,101168.59
2023-09-30T07:28:55.553Z,101155.25
2023-09-30T07:29:58.705Z,101171.47
2023-09-30T07:31:01.690Z,101166.31
2023-09-30T07:32:05.134Z,101166.03
2023-09-30T07:33:08.259Z,101161.66
2023-09-30T07:34:10.979Z,101171.38
2023-09-30T07:35:16.625Z,101168.97
2023-09-30T07:36:19.771Z,101159.69
2023-09-30T07:37:22.988Z,101168.34
2023-09-30T07:38:25.915Z,101166.53
2023-09-30T07:39:28.820Z,101170.75
2023-09-30T07:40:31.690Z,101169.56
2023-09-30T07:41:37.975Z,101173.34
2023-09-30T07:42:41.390Z,101171.66
2023-09-30T07:43:44.167Z,101170.78
2023-09-30T07:44:47.083Z,101175.16
2023-09-30T07:45:49.751Z,101166.00
2023-09-30T07:46:53.331Z,101144.59
2023-09-30T07:47:56.436Z,101173.75
2023-09-30T07:49:00.788Z,101174.47
2023-09-30T07:50:07.687Z,101176.16
2023-09-30T07:51:14.160Z,101171.09
2023-09-30T07:52:16.913Z,101174.19
2023-09-30T07:53:19.906Z,101174.03
2023-09-30T07:54:31.386Z,101168.25
2023-09-30T07:55:34.985Z,101151.97
2023-09-30T07:56:37.637Z,101170.25
2023-09-30T07:57:43.302Z,101176.13
2023-09-30T07:58:46.572Z,101174.28
2023-09-30T07:59:50.127Z,101175.00
2023-09-30T08:00:53.037Z,101179.66
2023-09-30T08:01:56.157Z,101179.06
2023-09-30T08:03:01.786Z,101182.53
2023-09-30T08:04:05.255Z,101176.16
2023-09-30T08:05:08.505Z,101180.91
2023-09-30T08:06:11.124Z,101181.44
2023-09-30T08:07:14.875Z,101185.31
2023-09-30T08:08:17.613Z,101180.09
2023-09-30T08:09:20.360Z,101172.78
2023-09-30T08:10:23.386Z,101182.25
2023-09-30T08:11:28.749Z,101178.97
2023-09-30T08:12:31.954Z,101176.53
2023-09-30T08:13:35.254Z,101179.16
2023-09-30T08:14:38.162Z,101183.00
2023-09-30T08:15:41.200Z,101184.22
2023-09-30T08:16:44.323Z,101183.00
2023-09-30T08:17:47.911Z,101180.25
2023-09-30T08:18:50.960Z,101184.72
2023-09-30T08:19:53.853Z,101188.22
2023-09-30T08:20:56.855Z,101185.16
2023-09-30T08:21:59.819Z,101185.09
2023-09-30T08:23:03.118Z,101179.69
2023-09-30T08:24:06.340Z,101185.31
2023-09-30T08:25:10.162Z,101184.22
2023-09-30T08:26:12.831Z,101180.41
2023-09-30T08:27:15.800Z,101191.84
2023-09-30T08:28:18.982Z,101186.88
2023-09-30T08:29:22.273Z,101190.69
2023-09-30T08:30:24.876Z,101184.41
2023-09-30T08:31:27.839Z,101193.37
2023-09-30T08:32:39.263Z,101183.25
2023-09-30T08:33:45.015Z,101184.50
2023-09-30T08:34:47.944Z,101179.50
2023-09-30T08:35:52.084Z,101180.19
2023-09-30T08:36:55.126Z,101182.56
2023-09-30T08:37:59.457Z,101160.41
2023-09-30T08:39:02.768Z,101182.13
2023-09-30T08:40:06.255Z,101181.19
2023-09-30T08:41:09.528Z,101184.72
2023-09-30T08:42:12.756Z,101186.94
2023-09-30T08:43:20.765Z,101177.19
2023-09-30T08:44:24.182Z,101180.41
2023-09-30T08:45:29.467Z,101185.00
2023-09-30T08:46:35.072Z,101183.88
2023-09-30T08:47:38.360Z,101180.13
2023-09-30T08:48:41.436Z,101169.69
2023-09-30T08:49:45.334Z,101174.78
2023-09-30T08:50:50.532Z,101174.44
2023-09-30T08:51:57.243Z,101170.56
2023-09-30T08:53:01.735Z,101178.38
2023-09-30T08:54:05.298Z,101171.88
2023-09-30T08:55:10.126Z,101173.13
2023-09-30T08:56:16.174Z,101164.56
2023-09-30T08:57:20.743Z,101165.56
2023-09-30T08:58:29.834Z,101170.34
2023-09-30T08:59:36.409Z,101172.84
2023-09-30T09:00:40.693Z,101159.25
2023-09-30T09:01:44.632Z,101163.53
2023-09-30T09:02:47.958Z,101163.91
2023-09-30T09:03:54.229Z,101156.16
2023-09-30T09:04:59.507Z,101167.78
2023-09-30T09:06:03.399Z,101167.34
2023-09-30T09:07:06.119Z,101168.50
2023-09-30T09:08:10.969Z,101165.47
2023-09-30T09:09:18.774Z,101166.31
2023-09-30T09:10:21.894Z,101164.47
2023-09-30T09:11:25.553Z,101160.22
2023-09-30T09:12:28.554Z,101159.19
2023-09-30T09:13:56.769Z,101157.66
2023-09-30T09:14:59.818Z,101152.00
2023-09-30T09:16:12.696Z,101160.22
2023-09-30T09:17:17.261Z,101155.03
2023-09-30T09:18:37.392Z,101157.31
2023-09-30T09:19:40.433Z,101154.09
2023-09-30T09:20:43.284Z,101156.47
2023-09-30T09:21:57.922Z,101147.84
2023-09-30T09:23:01.627Z,101156.88
2023-09-30T09:24:04.787Z,101152.63
2023-09-30T09:25:08.584Z,101148.69
2023-09-30T09:26:12.876Z,101154.41
2023-09-30T09:27:20.923Z,101150.66
2023-09-30T09:28:35.546Z,101157.69
2023-09-30T09:29:39.917Z,101155.31
2023-09-30T09:30:45.000Z,101153.28
2023-09-30T09:31:47.965Z,101150.41
2023-09-30T09:33:01.768Z,101155.84
2023-09-30T09:34:14.137Z,101160.47
2023-09-30T09:35:23.799Z,101153.50
2023-09-30T09:36:44.630Z,101141.00
2023-09-30T09:37:59.554Z,101136.41
2023-09-30T09:39:02.540Z,101135.69
2023-09-30T09:40:08.842Z,101132.19
2023-09-30T09:41:11.707Z,101136.16
2023-09-30T09:42:25.699Z,101131.72
2023-09-30T09:43:28.671Z,101134.91
2023-09-30T09:44:32.509Z,101132.03
2023-09-30T09:45:37.901Z,101130.75
2023-09-30T09:46:40.974Z,101129.16
2023-09-30T09:47:43.862Z,101133.88
2023-09-30T09:48:50.623Z,101121.13
2023-09-30T09:49:55.472Z,101132.97
2023-09-30T09:51:00.461Z,101128.63
2023-09-30T09:52:04.946Z,101121.06
2023-09-30T09:53:09.915Z,101128.06
2023-09-30T09:54:13.881Z,101115.47
2023-09-30T09:55:18.354Z,101123.97
2023-09-30T09:56:22.619Z,101118.69
2023-09-30T09:57:27.255Z,101101.41
2023-09-30T09:58:34.759Z,101096.69
2023-09-30T09:59:41.405Z,101096.25
2023-09-30T10:00:46.373Z,101121.19
2023-09-30T10:01:50.534Z,101113.00
2023-09-30T10:02:54.606Z,101117.66
2023-09-30T10:03:58.141Z,101116.16
2023-09-30T10:05:03.845Z,101117.41
2023-09-30T10:06:07.628Z,101118.50
2023-09-30T10:07:17.788Z,101069.44
2023-09-30T10:08:22.975Z,101109.66
2023-09-30T10:09:27.841Z,101114.41
2023-09-30T10:10:32.653Z,101106.75
2023-09-30T10:11:36.838Z,101097.81
2023-09-30T10:12:40.722Z,101078.63
2023-09-30T10:14:04.240Z,101108.47
2023-09-30T10:15:25.499Z,101102.06
2023-09-30T10:16:37.704Z,101107.13
2023-09-30T10:18:13.944Z,101103.78
2023-09-30T10:19:23.626Z,101102.81
2023-09-30T10:20:31.900Z,101097.34
2023-09-30T10:21:34.981Z,101101.09
2023-09-30T10:22:38.254Z,101101.66
2023-09-30T10:23:41.164Z,101101.16
2023-09-30T10:24:44.698Z,101096.47
2023-09-30T10:25:48.939Z,101093.38
2023-09-30T10:27:25.824Z,101091.94
2023-09-30T10:28:42.311Z,101091.47
2023-09-30T10:29:45.956Z,101092.88
2023-09-30T10:31:26.296Z,101092.59
2023-09-30T10:32:51.341Z,101092.69
2023-09-30T10:34:03.544Z,101097.03
2023-09-30T10:35:07.472Z,101091.34
2023-09-30T10:36:10.536Z,101086.41
2023-09-30T10:37:26.153Z,101087.69
2023-09-30T10:38:35.028Z,101087.81
2023-09-30T10:40:05.638Z,101087.38
2023-09-30T10:41:10.428Z,101078.88
2023-09-30T10:42:52.361Z,101057.69
2023-09-30T10:43:55.401Z,101083.38
2023-09-30T10:44:58.088Z,101079.31
2023-09-30T10:46:01.899Z,101083.53
2023-09-30T10:47:23.605Z,101077.44
2023-09-30T10:48:26.614Z,101073.25
2023-09-30T10:49:29.674Z,101088.13
2023-09-30T10:51:02.870Z,101078.88
2023-09-30T10:52:06.523Z,101070.84
2023-09-30T10:53:10.477Z,101075.56
2023-09-30T10:54:14.314Z,101062.56
2023-09-30T10:55:20.663Z,101066.31
2023-09-30T10:56:24.651Z,101063.75
2023-09-30T10:57:31.909Z,101062.12
2023-09-30T10:58:41.237Z,101062.19
2023-09-30T10:59:43.889Z,101063.41
2023-09-30T11:00:56.552Z,101064.28
2023-09-30T11:02:00.118Z,101064.75
2023-09-30T11:03:03.998Z,101058.16
2023-09-30T11:04:09.811Z,101058.00
2023-09-30T11:05:13.165Z,101049.00
2023-09-30T11:06:22.427Z,101057.25
2023-09-30T11:07:27.420Z,101048.59
2023-09-30T11:08:31.387Z,101052.25
2023-09-30T11:09:35.319Z,101054.44
2023-09-30T11:10:38.282Z,101055.66
2023-09-30T11:11:50.161Z,101045.09
2023-09-30T11:12:59.815Z,101049.75
2023-09-30T11:14:03.801Z,101047.31
2023-09-30T11:15:10.150Z,101045.88
2023-09-30T11:16:13.977Z,101039.84
2023-09-30T11:17:23.322Z,101046.97
2023-09-30T11:18:26.315Z,101045.78
2023-09-30T11:19:50.089Z,101046.44
2023-09-30T11:21:08.098Z,101045.78
2023-09-30T11:22:11.141Z,101043.78
2023-09-30T11:23:13.964Z,101050.09
2023-09-30T11:24:17.333Z,101039.50
2023-09-30T11:25:20.732Z,101041.81
2023-09-30T11:26:34.428Z,101050.34
2023-09-30T11:27:37.830Z,101045.16
2023-09-30T11:28:44.590Z,101046.50
2023-09-30T11:29:51.389Z,101048.97
2023-09-30T11:30:59.455Z,101047.66
2023-09-30T11:32:04.139Z,101041.97
2023-09-30T11:33:08.484Z,101039.50
2023-09-30T11:34:12.831Z,101043.66
2023-09-30T11:35:24.987Z,101043.91
2023-09-30T11:36:28.339Z,101041.47
2023-09-30T11:37:35.001Z,101033.91
2023-09-30T11:38:38.053Z,101046.97
2023-09-30T11:39:41.672Z,101048.81
2023-09-30T11:40:59.622Z,101036.91
2023-09-30T11:42:03.830Z,101041.06
2023-09-30T11:43:13.472Z,101033.97
2023-09-30T11:44:17.867Z,101033.59
2023-09-30T11:45:23.743Z,101037.63
2023-09-30T11:46:29.104Z,101039.00
2023-09-30T11:47:34.297Z,101002.84
2023-09-30T11:49:01.258Z,101016.03
2023-09-30T11:50:05.774Z,101040.47
2023-09-30T11:51:09.451Z,101037.53
2023-09-30T11:52:14.687Z,101036.87
2023-09-30T11:53:19.205Z,101040.56
2023-09-30T11:54:23.847Z,101033.34
2023-09-30T11:55:28.118Z,100922.22
2023-09-30T11:56:31.039Z,101027.63
2023-09-30T11:57:36.102Z,101024.34
2023-09-30T11:58:40.630Z,101026.34
2023-09-30T11:59:46.393Z,101022.16
2023-09-30T12:00:52.137Z,101026.31
2023-09-30T12:02:10.691Z,101029.66
2023-09-30T12:03:16.347Z,100999.22
2023-09-30T12:04:20.527Z,101018.09
2023-09-30T12:05:23.788Z,101029.56
2023-09-30T12:06:27.048Z,101027.31
2023-09-30T12:07:29.985Z,101025.16
2023-09-30T12:08:33.287Z,101021.28
2023-09-30T12:09:38.423Z,100998.94
2023-09-30T12:10:41.648Z,101012.31
2023-09-30T12:11:45.288Z,101009.84
2023-09-30T12:12:48.890Z,101013.19
2023-09-30T12:13:52.225Z,101018.53
2023-09-30T12:14:56.241Z,101013.56
2023-09-30T12:15:59.196Z,101023.22
2023-09-30T12:17:02.294Z,101014.53
2023-09-30T12:18:08.089Z,101014.03
2023-09-30T12:19:11.406Z,101007.63
2023-09-30T12:20:17.165Z,101016.13
2023-09-30T12:21:21.559Z,101016.81